sensor_id;sensor_type;location;lat;lon;timestamp;P1;durP1;ratioP1;P2;durP2;ratioP2
6689;SDS011;3382;51.576;8.076;2023-03-03T00:00:48;40.03;;;24.90;;
6689;SDS011;3382;51.576;8.076;2023-03-03T00:03:15;41.20;;;24.47;;
6689;SDS011;3382;51.576;8.076;2023-03-03T00:05:44;40.80;;;26.03;;
6689;SDS011;3382;51.576;8.076;2023-03-03T00:08:10;39.27;;;25.37;;
6689;SDS011;3382;51.576;8.076;2023-03-03T00:10:36;41.57;;;25.00;;
6689;SDS011;3382;51.576;8.076;2023-03-03T00:13:02;60.33;;;38.53;;
6689;SDS011;3382;51.576;8.076;2023-03-03T00:15:28;41.20;;;24.43;;
6689;SDS011;3382;51.576;8.076;2023-03-03T00:17:55;42.23;;;25.47;;
6689;SDS011;3382;51.576;8.076;2023-03-03T00:25:56;40.53;;;25.30;;
6689;SDS011;3382;51.576;8.076;2023-03-03T00:28:45;44.30;;;26.23;;
6689;SDS011;3382;51.576;8.076;2023-03-03T00:31:15;39.20;;;24.67;;
6689;SDS011;3382;51.576;8.076;2023-03-03T00:33:49;46.87;;;28.23;;
6689;SDS011;3382;51.576;8.076;2023-03-03T00:36:24;35.33;;;23.63;;
6689;SDS011;3382;51.576;8.076;2023-03-03T00:38:57;40.40;;;24.97;;
6689;SDS011;3382;51.576;8.076;2023-03-03T00:41:44;40.27;;;24.07;;
6689;SDS011;3382;51.576;8.076;2023-03-03T00:46:52;41.23;;;25.23;;
6689;SDS011;3382;51.576;8.076;2023-03-03T00:49:27;40.73;;;24.80;;
6689;SDS011;3382;51.576;8.076;2023-03-03T00:51:52;38.30;;;23.17;;
6689;SDS011;3382;51.576;8.076;2023-03-03T00:54:18;39.40;;;23.80;;
6689;SDS011;3382;51.576;8.076;2023-03-03T00:56:44;41.67;;;22.87;;
6689;SDS011;3382;51.576;8.076;2023-03-03T00:59:10;38.30;;;23.33;;
6689;SDS011;3382;51.576;8.076;2023-03-03T01:01:35;40.07;;;25.00;;
6689;SDS011;3382;51.576;8.076;2023-03-03T01:04:01;39.40;;;22.93;;
6689;SDS011;3382;51.576;8.076;2023-03-03T01:06:27;39.33;;;25.27;;
6689;SDS011;3382;51.576;8.076;2023-03-03T01:08:52;40.63;;;25.33;;
6689;SDS011;3382;51.576;8.076;2023-03-03T01:11:22;39.50;;;23.43;;
6689;SDS011;3382;51.576;8.076;2023-03-03T01:13:50;39.47;;;24.87;;
6689;SDS011;3382;51.576;8.076;2023-03-03T01:16:17;39.87;;;25.33;;
6689;SDS011;3382;51.576;8.076;2023-03-03T01:18:43;40.33;;;23.53;;
6689;SDS011;3382;51.576;8.076;2023-03-03T01:21:09;43.27;;;26.07;;
6689;SDS011;3382;51.576;8.076;2023-03-03T01:23:35;38.03;;;23.60;;
6689;SDS011;3382;51.576;8.076;2023-03-03T01:26:01;42.10;;;22.90;;
6689;SDS011;3382;51.576;8.076;2023-03-03T01:28:27;39.00;;;24.23;;
6689;SDS011;3382;51.576;8.076;2023-03-03T01:30:52;43.47;;;24.73;;
6689;SDS011;3382;51.576;8.076;2023-03-03T01:33:18;41.10;;;23.17;;
6689;SDS011;3382;51.576;8.076;2023-03-03T01:35:45;42.63;;;25.10;;
6689;SDS011;3382;51.576;8.076;2023-03-03T01:38:12;40.83;;;24.93;;
6689;SDS011;3382;51.576;8.076;2023-03-03T01:40:39;45.87;;;26.23;;
6689;SDS011;3382;51.576;8.076;2023-03-03T01:43:04;40.97;;;23.63;;
6689;SDS011;3382;51.576;8.076;2023-03-03T01:45:31;41.93;;;25.17;;
6689;SDS011;3382;51.576;8.076;2023-03-03T01:51:01;42.57;;;24.80;;
6689;SDS011;3382;51.576;8.076;2023-03-03T01:53:35;41.50;;;23.77;;
6689;SDS011;3382;51.576;8.076;2023-03-03T01:56:10;41.83;;;24.33;;
6689;SDS011;3382;51.576;8.076;2023-03-03T01:58:36;40.57;;;24.80;;
6689;SDS011;3382;51.576;8.076;2023-03-03T02:01:09;45.07;;;24.63;;
6689;SDS011;3382;51.576;8.076;2023-03-03T02:03:41;40.03;;;25.03;;
6689;SDS011;3382;51.576;8.076;2023-03-03T02:06:12;42.13;;;24.73;;
6689;SDS011;3382;51.576;8.076;2023-03-03T02:11:20;41.13;;;23.70;;
6689;SDS011;3382;51.576;8.076;2023-03-03T02:13:46;41.50;;;24.73;;
6689;SDS011;3382;51.576;8.076;2023-03-03T02:16:12;42.50;;;24.00;;
6689;SDS011;3382;51.576;8.076;2023-03-03T02:18:38;41.83;;;24.30;;
6689;SDS011;3382;51.576;8.076;2023-03-03T02:21:05;42.27;;;24.73;;
6689;SDS011;3382;51.576;8.076;2023-03-03T02:26:38;44.97;;;24.37;;
6689;SDS011;3382;51.576;8.076;2023-03-03T02:29:05;44.30;;;25.47;;
6689;SDS011;3382;51.576;8.076;2023-03-03T02:31:32;41.57;;;23.33;;
6689;SDS011;3382;51.576;8.076;2023-03-03T02:33:57;43.03;;;24.50;;
6689;SDS011;3382;51.576;8.076;2023-03-03T02:36:27;39.73;;;23.63;;
6689;SDS011;3382;51.576;8.076;2023-03-03T02:46:24;41.33;;;22.03;;
6689;SDS011;3382;51.576;8.076;2023-03-03T02:48:50;43.43;;;22.83;;
6689;SDS011;3382;51.576;8.076;2023-03-03T02:51:16;38.73;;;21.33;;
6689;SDS011;3382;51.576;8.076;2023-03-03T02:53:42;37.50;;;22.00;;
6689;SDS011;3382;51.576;8.076;2023-03-03T02:56:07;36.87;;;22.03;;
6689;SDS011;3382;51.576;8.076;2023-03-03T02:58:33;36.33;;;21.03;;
6689;SDS011;3382;51.576;8.076;2023-03-03T03:01:00;36.50;;;21.00;;
6689;SDS011;3382;51.576;8.076;2023-03-03T03:03:25;36.07;;;20.53;;
6689;SDS011;3382;51.576;8.076;2023-03-03T03:05:51;33.30;;;19.70;;
6689;SDS011;3382;51.576;8.076;2023-03-03T03:08:16;35.40;;;20.00;;
6689;SDS011;3382;51.576;8.076;2023-03-03T03:10:42;33.33;;;20.47;;
6689;SDS011;3382;51.576;8.076;2023-03-03T03:13:08;33.33;;;20.13;;
6689;SDS011;3382;51.576;8.076;2023-03-03T03:15:34;30.47;;;19.03;;
6689;SDS011;3382;51.576;8.076;2023-03-03T03:18:00;32.07;;;18.83;;
6689;SDS011;3382;51.576;8.076;2023-03-03T03:20:26;30.73;;;19.23;;
6689;SDS011;3382;51.576;8.076;2023-03-03T03:22:51;33.07;;;19.50;;
6689;SDS011;3382;51.576;8.076;2023-03-03T03:25:17;29.87;;;18.37;;
6689;SDS011;3382;51.576;8.076;2023-03-03T03:27:43;29.37;;;19.27;;
6689;SDS011;3382;51.576;8.076;2023-03-03T03:30:08;32.93;;;19.73;;
6689;SDS011;3382;51.576;8.076;2023-03-03T03:32:35;31.37;;;18.50;;
6689;SDS011;3382;51.576;8.076;2023-03-03T03:35:00;30.57;;;18.30;;
6689;SDS011;3382;51.576;8.076;2023-03-03T03:37:26;28.70;;;18.63;;
6689;SDS011;3382;51.576;8.076;2023-03-03T03:39:52;34.10;;;20.23;;
6689;SDS011;3382;51.576;8.076;2023-03-03T03:42:18;30.47;;;18.47;;
6689;SDS011;3382;51.576;8.076;2023-03-03T03:44:43;32.00;;;19.10;;
6689;SDS011;3382;51.576;8.076;2023-03-03T03:47:09;32.37;;;19.17;;
6689;SDS011;3382;51.576;8.076;2023-03-03T03:49:35;34.50;;;18.30;;
6689;SDS011;3382;51.576;8.076;2023-03-03T03:52:00;28.80;;;18.10;;
6689;SDS011;3382;51.576;8.076;2023-03-03T03:54:26;32.53;;;18.93;;
6689;SDS011;3382;51.576;8.076;2023-03-03T03:56:52;32.53;;;19.57;;
6689;SDS011;3382;51.576;8.076;2023-03-03T03:59:18;33.70;;;20.47;;
6689;SDS011;3382;51.576;8.076;2023-03-03T04:01:44;30.37;;;18.43;;
6689;SDS011;3382;51.576;8.076;2023-03-03T04:04:12;28.07;;;18.20;;
6689;SDS011;3382;51.576;8.076;2023-03-03T04:06:38;31.33;;;18.67;;
6689;SDS011;3382;51.576;8.076;2023-03-03T04:09:03;29.73;;;17.80;;
6689;SDS011;3382;51.576;8.076;2023-03-03T04:11:29;27.13;;;17.13;;
6689;SDS011;3382;51.576;8.076;2023-03-03T04:13:55;29.13;;;18.77;;
6689;SDS011;3382;51.576;8.076;2023-03-03T04:16:20;28.77;;;17.33;;
6689;SDS011;3382;51.576;8.076;2023-03-03T04:18:46;27.00;;;17.97;;
6689;SDS011;3382;51.576;8.076;2023-03-03T04:21:12;33.40;;;18.07;;
6689;SDS011;3382;51.576;8.076;2023-03-03T04:23:38;29.10;;;18.47;;
6689;SDS011;3382;51.576;8.076;2023-03-03T04:26:04;28.87;;;17.10;;
6689;SDS011;3382;51.576;8.076;2023-03-03T04:28:30;28.80;;;16.70;;
6689;SDS011;3382;51.576;8.076;2023-03-03T04:30:56;28.63;;;17.47;;
6689;SDS011;3382;51.576;8.076;2023-03-03T04:33:21;27.00;;;17.23;;
6689;SDS011;3382;51.576;8.076;2023-03-03T04:35:47;30.33;;;18.17;;
6689;SDS011;3382;51.576;8.076;2023-03-03T04:38:12;28.00;;;16.97;;
6689;SDS011;3382;51.576;8.076;2023-03-03T04:40:41;25.97;;;16.73;;
6689;SDS011;3382;51.576;8.076;2023-03-03T04:43:06;26.97;;;16.53;;
6689;SDS011;3382;51.576;8.076;2023-03-03T04:45:32;25.30;;;16.53;;
6689;SDS011;3382;51.576;8.076;2023-03-03T04:47:58;27.30;;;16.00;;
6689;SDS011;3382;51.576;8.076;2023-03-03T04:50:23;24.63;;;16.57;;
6689;SDS011;3382;51.576;8.076;2023-03-03T04:52:49;30.33;;;17.43;;
6689;SDS011;3382;51.576;8.076;2023-03-03T04:55:14;28.13;;;17.27;;
6689;SDS011;3382;51.576;8.076;2023-03-03T04:57:41;31.13;;;17.50;;
6689;SDS011;3382;51.576;8.076;2023-03-03T05:00:07;27.23;;;17.20;;
6689;SDS011;3382;51.576;8.076;2023-03-03T05:02:34;25.57;;;16.20;;
6689;SDS011;3382;51.576;8.076;2023-03-03T05:05:00;27.40;;;16.63;;
6689;SDS011;3382;51.576;8.076;2023-03-03T05:07:25;29.23;;;19.03;;
6689;SDS011;3382;51.576;8.076;2023-03-03T05:09:51;24.13;;;15.93;;
6689;SDS011;3382;51.576;8.076;2023-03-03T05:12:16;28.17;;;17.30;;
6689;SDS011;3382;51.576;8.076;2023-03-03T05:14:42;28.63;;;17.97;;
6689;SDS011;3382;51.576;8.076;2023-03-03T05:17:08;27.53;;;18.23;;
6689;SDS011;3382;51.576;8.076;2023-03-03T05:19:33;26.00;;;15.70;;
6689;SDS011;3382;51.576;8.076;2023-03-03T05:21:59;27.70;;;18.10;;
6689;SDS011;3382;51.576;8.076;2023-03-03T05:24:25;31.23;;;17.50;;
6689;SDS011;3382;51.576;8.076;2023-03-03T05:26:51;25.80;;;16.87;;
6689;SDS011;3382;51.576;8.076;2023-03-03T05:29:17;25.37;;;16.27;;
6689;SDS011;3382;51.576;8.076;2023-03-03T05:31:43;28.00;;;17.57;;
6689;SDS011;3382;51.576;8.076;2023-03-03T05:34:09;26.93;;;16.67;;
6689;SDS011;3382;51.576;8.076;2023-03-03T05:36:34;33.57;;;17.30;;
6689;SDS011;3382;51.576;8.076;2023-03-03T05:39:00;24.83;;;16.40;;
6689;SDS011;3382;51.576;8.076;2023-03-03T05:41:25;28.63;;;16.77;;
6689;SDS011;3382;51.576;8.076;2023-03-03T05:43:51;27.87;;;16.80;;
6689;SDS011;3382;51.576;8.076;2023-03-03T05:46:17;26.40;;;16.93;;
6689;SDS011;3382;51.576;8.076;2023-03-03T05:48:42;28.30;;;16.67;;
6689;SDS011;3382;51.576;8.076;2023-03-03T05:51:09;23.43;;;15.30;;
6689;SDS011;3382;51.576;8.076;2023-03-03T05:53:34;24.27;;;15.67;;
6689;SDS011;3382;51.576;8.076;2023-03-03T05:56:00;27.80;;;16.17;;
6689;SDS011;3382;51.576;8.076;2023-03-03T05:58:26;28.00;;;16.40;;
6689;SDS011;3382;51.576;8.076;2023-03-03T06:00:52;24.97;;;15.80;;
6689;SDS011;3382;51.576;8.076;2023-03-03T06:03:18;26.23;;;15.97;;
6689;SDS011;3382;51.576;8.076;2023-03-03T06:05:43;23.90;;;15.40;;
6689;SDS011;3382;51.576;8.076;2023-03-03T06:08:09;27.23;;;16.77;;
6689;SDS011;3382;51.576;8.076;2023-03-03T06:10:35;26.93;;;16.40;;
6689;SDS011;3382;51.576;8.076;2023-03-03T06:13:00;26.30;;;16.20;;
6689;SDS011;3382;51.576;8.076;2023-03-03T06:15:26;30.23;;;17.17;;
6689;SDS011;3382;51.576;8.076;2023-03-03T06:17:52;32.43;;;19.83;;
6689;SDS011;3382;51.576;8.076;2023-03-03T06:20:17;30.93;;;17.23;;
6689;SDS011;3382;51.576;8.076;2023-03-03T06:22:43;28.73;;;16.90;;
6689;SDS011;3382;51.576;8.076;2023-03-03T06:25:09;23.83;;;15.80;;
6689;SDS011;3382;51.576;8.076;2023-03-03T06:27:34;31.43;;;17.60;;
6689;SDS011;3382;51.576;8.076;2023-03-03T06:30:00;30.87;;;16.80;;
6689;SDS011;3382;51.576;8.076;2023-03-03T06:32:26;23.67;;;15.40;;
6689;SDS011;3382;51.576;8.076;2023-03-03T06:34:52;23.97;;;15.07;;
6689;SDS011;3382;51.576;8.076;2023-03-03T06:37:17;26.03;;;15.57;;
6689;SDS011;3382;51.576;8.076;2023-03-03T06:39:43;17.33;;;10.07;;
6689;SDS011;3382;51.576;8.076;2023-03-03T06:42:09;25.40;;;16.23;;
6689;SDS011;3382;51.576;8.076;2023-03-03T06:44:34;23.73;;;15.27;;
6689;SDS011;3382;51.576;8.076;2023-03-03T06:47:00;25.97;;;16.43;;
6689;SDS011;3382;51.576;8.076;2023-03-03T06:49:26;23.63;;;14.17;;
6689;SDS011;3382;51.576;8.076;2023-03-03T06:51:51;25.17;;;15.77;;
6689;SDS011;3382;51.576;8.076;2023-03-03T06:54:18;23.27;;;14.87;;
6689;SDS011;3382;51.576;8.076;2023-03-03T06:56:51;24.67;;;16.17;;
6689;SDS011;3382;51.576;8.076;2023-03-03T06:59:22;22.30;;;15.20;;
6689;SDS011;3382;51.576;8.076;2023-03-03T07:01:48;23.30;;;14.97;;
6689;SDS011;3382;51.576;8.076;2023-03-03T07:06:49;23.17;;;15.23;;
6689;SDS011;3382;51.576;8.076;2023-03-03T07:09:25;25.17;;;16.73;;
6689;SDS011;3382;51.576;8.076;2023-03-03T07:11:54;22.17;;;15.17;;
6689;SDS011;3382;51.576;8.076;2023-03-03T07:14:25;23.60;;;15.43;;
6689;SDS011;3382;51.576;8.076;2023-03-03T07:16:55;21.73;;;15.10;;
6689;SDS011;3382;51.576;8.076;2023-03-03T07:19:28;22.07;;;14.20;;
6689;SDS011;3382;51.576;8.076;2023-03-03T07:21:57;25.37;;;14.93;;
6689;SDS011;3382;51.576;8.076;2023-03-03T07:24:25;23.67;;;15.00;;
6689;SDS011;3382;51.576;8.076;2023-03-03T07:26:58;24.47;;;15.47;;
6689;SDS011;3382;51.576;8.076;2023-03-03T07:29:25;21.70;;;14.87;;
6689;SDS011;3382;51.576;8.076;2023-03-03T07:31:55;24.13;;;15.87;;
6689;SDS011;3382;51.576;8.076;2023-03-03T07:37:03;23.50;;;14.10;;
6689;SDS011;3382;51.576;8.076;2023-03-03T07:39:37;24.80;;;15.80;;
6689;SDS011;3382;51.576;8.076;2023-03-03T07:42:14;24.20;;;16.00;;
6689;SDS011;3382;51.576;8.076;2023-03-03T07:44:54;22.47;;;15.10;;
6689;SDS011;3382;51.576;8.076;2023-03-03T07:47:24;7.93;;;5.13;;
6689;SDS011;3382;51.576;8.076;2023-03-03T07:49:51;23.67;;;14.57;;
6689;SDS011;3382;51.576;8.076;2023-03-03T08:03:11;26.03;;;15.00;;
6689;SDS011;3382;51.576;8.076;2023-03-03T08:05:48;24.23;;;14.23;;
6689;SDS011;3382;51.576;8.076;2023-03-03T08:08:21;23.40;;;14.53;;
6689;SDS011;3382;51.576;8.076;2023-03-03T08:10:55;24.50;;;14.50;;
6689;SDS011;3382;51.576;8.076;2023-03-03T08:16:01;22.50;;;14.97;;
6689;SDS011;3382;51.576;8.076;2023-03-03T08:18:33;24.43;;;14.97;;
6689;SDS011;3382;51.576;8.076;2023-03-03T08:21:18;22.87;;;15.13;;
6689;SDS011;3382;51.576;8.076;2023-03-03T08:23:51;25.93;;;14.87;;
6689;SDS011;3382;51.576;8.076;2023-03-03T08:26:21;23.83;;;14.80;;
6689;SDS011;3382;51.576;8.076;2023-03-03T08:28:48;28.17;;;15.30;;
6689;SDS011;3382;51.576;8.076;2023-03-03T08:31:14;25.73;;;15.53;;
6689;SDS011;3382;51.576;8.076;2023-03-03T08:33:41;23.33;;;14.63;;
6689;SDS011;3382;51.576;8.076;2023-03-03T08:36:08;23.73;;;14.53;;
6689;SDS011;3382;51.576;8.076;2023-03-03T08:38:34;26.13;;;15.70;;
6689;SDS011;3382;51.576;8.076;2023-03-03T08:41:00;24.10;;;14.47;;
6689;SDS011;3382;51.576;8.076;2023-03-03T08:43:26;24.77;;;14.83;;
6689;SDS011;3382;51.576;8.076;2023-03-03T08:45:53;24.17;;;15.57;;
6689;SDS011;3382;51.576;8.076;2023-03-03T08:48:23;25.37;;;15.13;;
6689;SDS011;3382;51.576;8.076;2023-03-03T08:50:50;24.87;;;15.17;;
6689;SDS011;3382;51.576;8.076;2023-03-03T08:53:16;26.23;;;16.43;;
6689;SDS011;3382;51.576;8.076;2023-03-03T08:55:43;31.10;;;16.73;;
6689;SDS011;3382;51.576;8.076;2023-03-03T08:58:09;27.50;;;16.47;;
6689;SDS011;3382;51.576;8.076;2023-03-03T09:00:35;24.93;;;16.17;;
6689;SDS011;3382;51.576;8.076;2023-03-03T09:03:02;7.10;;;4.03;;
6689;SDS011;3382;51.576;8.076;2023-03-03T09:05:28;29.47;;;16.63;;
6689;SDS011;3382;51.576;8.076;2023-03-03T09:07:54;28.63;;;17.20;;
6689;SDS011;3382;51.576;8.076;2023-03-03T09:10:21;27.87;;;16.17;;
6689;SDS011;3382;51.576;8.076;2023-03-03T09:12:51;26.33;;;15.53;;
6689;SDS011;3382;51.576;8.076;2023-03-03T09:17:52;29.17;;;17.17;;
6689;SDS011;3382;51.576;8.076;2023-03-03T09:20:33;28.23;;;16.47;;
6689;SDS011;3382;51.576;8.076;2023-03-03T09:26:44;42.00;;;20.20;;
6689;SDS011;3382;51.576;8.076;2023-03-03T09:31:45;43.27;;;19.27;;
6689;SDS011;3382;51.576;8.076;2023-03-03T09:37:00;46.63;;;21.20;;
6689;SDS011;3382;51.576;8.076;2023-03-03T09:39:38;45.30;;;20.17;;
6689;SDS011;3382;51.576;8.076;2023-03-03T09:53:01;38.23;;;18.67;;
6689;SDS011;3382;51.576;8.076;2023-03-03T09:55:49;42.47;;;19.40;;
6689;SDS011;3382;51.576;8.076;2023-03-03T10:11:56;38.43;;;18.43;;
6689;SDS011;3382;51.576;8.076;2023-03-03T10:17:31;38.77;;;18.43;;
6689;SDS011;3382;51.576;8.076;2023-03-03T10:31:33;35.20;;;17.20;;
6689;SDS011;3382;51.576;8.076;2023-03-03T10:37:06;41.00;;;18.53;;
6689;SDS011;3382;51.576;8.076;2023-03-03T10:47:37;34.23;;;16.37;;
6689;SDS011;3382;51.576;8.076;2023-03-03T10:53:43;39.27;;;16.07;;
6689;SDS011;3382;51.576;8.076;2023-03-03T10:56:25;32.33;;;15.37;;
6689;SDS011;3382;51.576;8.076;2023-03-03T11:07:08;33.33;;;14.80;;
6689;SDS011;3382;51.576;8.076;2023-03-03T11:12:27;31.47;;;15.17;;
6689;SDS011;3382;51.576;8.076;2023-03-03T11:20:45;31.03;;;14.50;;
6689;SDS011;3382;51.576;8.076;2023-03-03T11:23:49;30.10;;;15.47;;
6689;SDS011;3382;51.576;8.076;2023-03-03T11:26:46;33.40;;;15.47;;
6689;SDS011;3382;51.576;8.076;2023-03-03T11:29:34;36.47;;;15.60;;
6689;SDS011;3382;51.576;8.076;2023-03-03T11:37:51;29.40;;;14.70;;
6689;SDS011;3382;51.576;8.076;2023-03-03T11:46:12;37.07;;;17.40;;
6689;SDS011;3382;51.576;8.076;2023-03-03T11:48:50;35.50;;;15.83;;
6689;SDS011;3382;51.576;8.076;2023-03-03T11:54:33;32.93;;;15.53;;
6689;SDS011;3382;51.576;8.076;2023-03-03T12:05:11;30.17;;;14.73;;
6689;SDS011;3382;51.576;8.076;2023-03-03T12:08:06;30.47;;;14.50;;
6689;SDS011;3382;51.576;8.076;2023-03-03T12:24:50;32.73;;;14.30;;
6689;SDS011;3382;51.576;8.076;2023-03-03T12:33:29;30.60;;;14.13;;
6689;SDS011;3382;51.576;8.076;2023-03-03T12:36:32;30.67;;;14.17;;
6689;SDS011;3382;51.576;8.076;2023-03-03T12:47:28;27.10;;;14.10;;
6689;SDS011;3382;51.576;8.076;2023-03-03T12:50:14;27.73;;;12.77;;
6689;SDS011;3382;51.576;8.076;2023-03-03T12:52:55;28.97;;;13.43;;
6689;SDS011;3382;51.576;8.076;2023-03-03T13:07:00;32.67;;;14.10;;
6689;SDS011;3382;51.576;8.076;2023-03-03T13:15:24;28.50;;;14.10;;
6689;SDS011;3382;51.576;8.076;2023-03-03T13:23:57;32.30;;;15.20;;
6689;SDS011;3382;51.576;8.076;2023-03-03T13:26:36;31.63;;;14.83;;
6689;SDS011;3382;51.576;8.076;2023-03-03T13:29:25;33.97;;;14.70;;
6689;SDS011;3382;51.576;8.076;2023-03-03T13:31:55;31.33;;;14.90;;
6689;SDS011;3382;51.576;8.076;2023-03-03T13:34:29;25.63;;;13.00;;
6689;SDS011;3382;51.576;8.076;2023-03-03T13:37:07;5.23;;;3.03;;
6689;SDS011;3382;51.576;8.076;2023-03-03T13:40:04;31.60;;;14.33;;
6689;SDS011;3382;51.576;8.076;2023-03-03T13:45:17;37.00;;;15.47;;
6689;SDS011;3382;51.576;8.076;2023-03-03T13:50:32;30.50;;;15.97;;
6689;SDS011;3382;51.576;8.076;2023-03-03T14:07:02;32.83;;;14.77;;
6689;SDS011;3382;51.576;8.076;2023-03-03T14:09:46;31.47;;;15.10;;
6689;SDS011;3382;51.576;8.076;2023-03-03T14:12:25;33.37;;;13.97;;
6689;SDS011;3382;51.576;8.076;2023-03-03T14:15:30;7.33;;;3.43;;
6689;SDS011;3382;51.576;8.076;2023-03-03T14:18:12;12.30;;;6.20;;
6689;SDS011;3382;51.576;8.076;2023-03-03T14:20:50;21.07;;;9.40;;
6689;SDS011;3382;51.576;8.076;2023-03-03T14:26:08;23.03;;;10.57;;
6689;SDS011;3382;51.576;8.076;2023-03-03T14:28:39;25.60;;;12.40;;
6689;SDS011;3382;51.576;8.076;2023-03-03T14:31:21;20.60;;;10.43;;
6689;SDS011;3382;51.576;8.076;2023-03-03T14:36:37;27.30;;;14.67;;
6689;SDS011;3382;51.576;8.076;2023-03-03T14:39:24;23.27;;;12.17;;
6689;SDS011;3382;51.576;8.076;2023-03-03T14:42:02;20.03;;;11.63;;
6689;SDS011;3382;51.576;8.076;2023-03-03T14:44:37;20.80;;;10.97;;
6689;SDS011;3382;51.576;8.076;2023-03-03T14:47:25;20.43;;;9.50;;
6689;SDS011;3382;51.576;8.076;2023-03-03T14:49:53;19.53;;;10.27;;
6689;SDS011;3382;51.576;8.076;2023-03-03T14:52:25;21.00;;;10.67;;
6689;SDS011;3382;51.576;8.076;2023-03-03T14:54:56;20.27;;;11.53;;
6689;SDS011;3382;51.576;8.076;2023-03-03T15:02:40;21.53;;;11.40;;
6689;SDS011;3382;51.576;8.076;2023-03-03T15:07:45;20.90;;;11.87;;
6689;SDS011;3382;51.576;8.076;2023-03-03T15:10:38;19.13;;;11.17;;
6689;SDS011;3382;51.576;8.076;2023-03-03T15:18:13;28.50;;;16.07;;
6689;SDS011;3382;51.576;8.076;2023-03-03T15:20:41;27.73;;;15.83;;
6689;SDS011;3382;51.576;8.076;2023-03-03T15:34:27;34.60;;;17.17;;
6689;SDS011;3382;51.576;8.076;2023-03-03T15:37:23;34.63;;;17.00;;
6689;SDS011;3382;51.576;8.076;2023-03-03T15:40:00;30.90;;;16.00;;
6689;SDS011;3382;51.576;8.076;2023-03-03T15:51:05;33.53;;;17.23;;
6689;SDS011;3382;51.576;8.076;2023-03-03T16:04:38;40.37;;;19.80;;
6689;SDS011;3382;51.576;8.076;2023-03-03T16:10:19;36.37;;;17.50;;
6689;SDS011;3382;51.576;8.076;2023-03-03T16:12:51;35.60;;;18.17;;
6689;SDS011;3382;51.576;8.076;2023-03-03T16:15:21;35.13;;;17.60;;
6689;SDS011;3382;51.576;8.076;2023-03-03T16:21:02;44.37;;;21.67;;
6689;SDS011;3382;51.576;8.076;2023-03-03T16:23:38;40.03;;;19.80;;
6689;SDS011;3382;51.576;8.076;2023-03-03T16:29:16;31.47;;;15.17;;
6689;SDS011;3382;51.576;8.076;2023-03-03T16:32:04;20.50;;;6.30;;
6689;SDS011;3382;51.576;8.076;2023-03-03T16:34:53;36.57;;;19.60;;
6689;SDS011;3382;51.576;8.076;2023-03-03T16:40:19;37.00;;;18.20;;
6689;SDS011;3382;51.576;8.076;2023-03-03T16:42:46;36.70;;;19.43;;
6689;SDS011;3382;51.576;8.076;2023-03-03T16:59:49;35.10;;;18.67;;
6689;SDS011;3382;51.576;8.076;2023-03-03T17:24:38;37.33;;;18.33;;
6689;SDS011;3382;51.576;8.076;2023-03-03T17:30:09;42.47;;;18.97;;
6689;SDS011;3382;51.576;8.076;2023-03-03T17:33:05;35.50;;;17.80;;
6689;SDS011;3382;51.576;8.076;2023-03-03T17:41:04;36.63;;;18.10;;
6689;SDS011;3382;51.576;8.076;2023-03-03T17:44:10;41.80;;;19.97;;
6689;SDS011;3382;51.576;8.076;2023-03-03T17:46:50;41.37;;;18.93;;
6689;SDS011;3382;51.576;8.076;2023-03-03T18:01:06;43.17;;;21.27;;
6689;SDS011;3382;51.576;8.076;2023-03-03T18:08:52;47.63;;;23.73;;
6689;SDS011;3382;51.576;8.076;2023-03-03T18:28:23;43.33;;;19.73;;
6689;SDS011;3382;51.576;8.076;2023-03-03T18:31:26;41.43;;;20.20;;
6689;SDS011;3382;51.576;8.076;2023-03-03T18:34:22;46.60;;;21.03;;
6689;SDS011;3382;51.576;8.076;2023-03-03T18:39:38;37.80;;;17.27;;
6689;SDS011;3382;51.576;8.076;2023-03-03T18:44:35;40.53;;;19.43;;
6689;SDS011;3382;51.576;8.076;2023-03-03T18:47:01;41.33;;;20.73;;
6689;SDS011;3382;51.576;8.076;2023-03-03T18:52:30;40.00;;;20.50;;
6689;SDS011;3382;51.576;8.076;2023-03-03T18:57:33;45.57;;;21.53;;
6689;SDS011;3382;51.576;8.076;2023-03-03T19:00:13;45.00;;;24.17;;
6689;SDS011;3382;51.576;8.076;2023-03-03T19:02:52;46.80;;;23.50;;
6689;SDS011;3382;51.576;8.076;2023-03-03T19:05:24;41.00;;;22.13;;
6689;SDS011;3382;51.576;8.076;2023-03-03T19:07:57;36.63;;;19.27;;
6689;SDS011;3382;51.576;8.076;2023-03-03T19:13:14;53.20;;;24.77;;
6689;SDS011;3382;51.576;8.076;2023-03-03T19:15:57;49.27;;;24.07;;
6689;SDS011;3382;51.576;8.076;2023-03-03T19:21:06;50.03;;;24.93;;
6689;SDS011;3382;51.576;8.076;2023-03-03T19:50:46;42.73;;;19.97;;
6689;SDS011;3382;51.576;8.076;2023-03-03T19:59:02;43.50;;;21.00;;
6689;SDS011;3382;51.576;8.076;2023-03-03T20:10:05;44.77;;;20.17;;
6689;SDS011;3382;51.576;8.076;2023-03-03T20:12:38;53.67;;;21.80;;
6689;SDS011;3382;51.576;8.076;2023-03-03T20:15:24;44.60;;;21.03;;
6689;SDS011;3382;51.576;8.076;2023-03-03T20:37:47;48.20;;;22.33;;
6689;SDS011;3382;51.576;8.076;2023-03-03T20:48:52;42.37;;;19.97;;
6689;SDS011;3382;51.576;8.076;2023-03-03T20:51:44;43.93;;;20.37;;
6689;SDS011;3382;51.576;8.076;2023-03-03T20:54:23;44.90;;;21.23;;
6689;SDS011;3382;51.576;8.076;2023-03-03T21:00:02;40.63;;;18.43;;
6689;SDS011;3382;51.576;8.076;2023-03-03T21:02:50;37.20;;;18.10;;
6689;SDS011;3382;51.576;8.076;2023-03-03T21:05:37;39.67;;;18.87;;
6689;SDS011;3382;51.576;8.076;2023-03-03T21:11:05;35.00;;;18.47;;
6689;SDS011;3382;51.576;8.076;2023-03-03T21:16:14;38.50;;;19.83;;
6689;SDS011;3382;51.576;8.076;2023-03-03T21:18:54;38.93;;;18.80;;
6689;SDS011;3382;51.576;8.076;2023-03-03T21:21:37;40.07;;;18.00;;
6689;SDS011;3382;51.576;8.076;2023-03-03T21:24:09;37.37;;;18.87;;
6689;SDS011;3382;51.576;8.076;2023-03-03T21:29:51;39.50;;;21.10;;
6689;SDS011;3382;51.576;8.076;2023-03-03T21:32:34;39.23;;;20.97;;
6689;SDS011;3382;51.576;8.076;2023-03-03T21:35:14;43.70;;;20.53;;
6689;SDS011;3382;51.576;8.076;2023-03-03T21:37:48;37.27;;;19.13;;
6689;SDS011;3382;51.576;8.076;2023-03-03T21:40:19;35.40;;;19.53;;
6689;SDS011;3382;51.576;8.076;2023-03-03T21:42:48;34.30;;;16.60;;
6689;SDS011;3382;51.576;8.076;2023-03-03T21:45:14;35.63;;;17.23;;
6689;SDS011;3382;51.576;8.076;2023-03-03T21:47:41;36.13;;;18.07;;
6689;SDS011;3382;51.576;8.076;2023-03-03T21:50:06;32.27;;;16.10;;
6689;SDS011;3382;51.576;8.076;2023-03-03T21:52:33;36.03;;;18.20;;
6689;SDS011;3382;51.576;8.076;2023-03-03T21:54:58;33.07;;;18.30;;
6689;SDS011;3382;51.576;8.076;2023-03-03T21:57:24;36.97;;;17.73;;
6689;SDS011;3382;51.576;8.076;2023-03-03T21:59:50;34.63;;;18.20;;
6689;SDS011;3382;51.576;8.076;2023-03-03T22:02:17;35.63;;;17.67;;
6689;SDS011;3382;51.576;8.076;2023-03-03T22:04:42;29.57;;;16.53;;
6689;SDS011;3382;51.576;8.076;2023-03-03T22:07:08;32.83;;;17.47;;
6689;SDS011;3382;51.576;8.076;2023-03-03T22:09:34;33.67;;;17.83;;
6689;SDS011;3382;51.576;8.076;2023-03-03T22:12:01;31.93;;;16.47;;
6689;SDS011;3382;51.576;8.076;2023-03-03T22:14:26;34.23;;;17.00;;
6689;SDS011;3382;51.576;8.076;2023-03-03T22:16:52;33.30;;;15.97;;
6689;SDS011;3382;51.576;8.076;2023-03-03T22:19:17;31.97;;;16.27;;
6689;SDS011;3382;51.576;8.076;2023-03-03T22:21:43;31.80;;;16.83;;
6689;SDS011;3382;51.576;8.076;2023-03-03T22:24:10;33.47;;;17.00;;
6689;SDS011;3382;51.576;8.076;2023-03-03T22:26:36;30.77;;;15.70;;
6689;SDS011;3382;51.576;8.076;2023-03-03T22:29:02;32.27;;;17.03;;
6689;SDS011;3382;51.576;8.076;2023-03-03T22:31:28;34.63;;;17.20;;
6689;SDS011;3382;51.576;8.076;2023-03-03T22:33:54;29.00;;;16.77;;
6689;SDS011;3382;51.576;8.076;2023-03-03T22:36:20;31.97;;;16.73;;
6689;SDS011;3382;51.576;8.076;2023-03-03T22:38:45;30.67;;;16.50;;
6689;SDS011;3382;51.576;8.076;2023-03-03T22:41:12;32.83;;;17.10;;
6689;SDS011;3382;51.576;8.076;2023-03-03T22:43:38;33.87;;;17.37;;
6689;SDS011;3382;51.576;8.076;2023-03-03T22:46:04;28.87;;;16.70;;